Time;durP1;ratioP1;P1;durP2;ratioP2;P2;SDS_P1;SDS_P2;PMS_P1;PMS_P2;Temp;Humidity;BMP_temperature;BMP_pressure;BME280_temperature;BME280_humidity;BME280_pressure;Samples;Min_cycle;Max_cycle;Signal;HPM_P1;HPM_P2
2022/05/26 00:00:50;;;;;;;14.17;9.77;;;;;;;;;;5010172;28;20113;-76
2022/05/26 00:03:15;;;;;;;11.93;8.07;;;;;;;;;;5002076;28;20330;-76
2022/05/26 00:05:41;;;;;;;12.37;8.90;;;;;;;;;;5004435;28;20026;-77
2022/05/26 00:08:06;;;;;;;12.33;9.10;;;;;;;;;;4997558;28;20267;-75
2022/05/26 00:10:34;;;;;;;13.30;8.45;;;;;;;;;;5016757;28;20751;-74
2022/05/26 00:12:59;;;;;;;17.17;9.63;;;;;;;;;;4988640;28;20025;-74
2022/05/26 00:15:24;;;;;;;16.55;8.75;;;;;;;;;;5005867;28;20021;-76
2022/05/26 00:17:49;;;;;;;12.38;8.70;;;;;;;;;;5010115;28;20095;-75
2022/05/26 00:20:15;;;;;;;13.05;8.95;;;;;;;;;;5020974;28;20040;-75
2022/05/26 00:22:40;;;;;;;17.55;10.98;;;;;;;;;;5005673;28;20368;-77
2022/05/26 00:25:05;;;;;;;15.80;9.23;;;;;;;;;;4988717;28;20034;-75
2022/05/26 00:27:30;;;;;;;19.13;9.60;;;;;;;;;;5008134;28;20018;-77
2022/05/26 00:29:55;;;;;;;13.82;9.27;;;;;;;;;;5003773;28;20033;-74
2022/05/26 00:32:20;;;;;;;17.13;10.10;;;;;;;;;;5004783;28;20593;-74
2022/05/26 00:34:46;;;;;;;16.50;10.67;;;;;;;;;;5007024;28;20013;-75
2022/05/26 00:37:11;;;;;;;15.40;9.93;;;;;;;;;;5003702;28;20465;-76
2022/05/26 00:39:37;;;;;;;16.00;10.25;;;;;;;;;;5000932;28;20049;-77
2022/05/26 00:42:04;;;;;;;14.65;10.05;;;;;;;;;;5006649;28;20040;-76
2022/05/26 00:44:29;;;;;;;17.88;10.23;;;;;;;;;;5004024;28;20496;-78
2022/05/26 00:46:57;;;;;;;18.55;11.15;;;;;;;;;;4985673;28;20033;-76
2022/05/26 00:49:31;;;;;;;21.23;10.27;;;;;;;;;;5011261;28;20021;-73
2022/05/26 00:51:56;;;;;;;17.55;10.65;;;;;;;;;;5027535;28;20021;-76
2022/05/26 00:54:22;;;;;;;18.08;10.55;;;;;;;;;;5004806;28;20034;-77
2022/05/26 00:57:01;;;;;;;22.77;10.27;;;;;;;;;;5002959;28;20498;-77
2022/05/26 00:59:28;;;;;;;18.40;11.63;;;;;;;;;;5004478;28;20026;-77
2022/05/26 01:01:55;;;;;;;18.90;11.25;;;;;;;;;;4978354;28;20515;-76
2022/05/26 01:04:22;;;;;;;24.33;12.05;;;;;;;;;;5000686;28;20026;-74
2022/05/26 01:06:54;;;;;;;19.63;11.35;;;;;;;;;;5005388;28;20379;-76
2022/05/26 01:09:20;;;;;;;16.75;10.48;;;;;;;;;;4983223;28;20452;-75
2022/05/26 01:11:45;;;;;;;22.13;9.90;;;;;;;;;;5001797;28;20017;-75
2022/05/26 01:14:13;;;;;;;22.33;11.75;;;;;;;;;;5006608;28;20026;-77
2022/05/26 01:16:43;;;;;;;19.13;10.38;;;;;;;;;;5005091;28;20026;-77
2022/05/26 01:19:23;;;;;;;20.02;10.68;;;;;;;;;;5003158;28;20544;-73
2022/05/26 01:21:57;;;;;;;23.33;11.02;;;;;;;;;;4998918;28;20030;-75
2022/05/26 01:24:35;;;;;;;20.35;10.75;;;;;;;;;;5001201;28;20033;-77
2022/05/26 01:27:19;;;;;;;19.33;9.85;;;;;;;;;;5007180;28;20014;-75
2022/05/26 01:29:57;;;;;;;19.98;10.50;;;;;;;;;;4996967;28;20486;-75
2022/05/26 01:32:52;;;;;;;20.70;11.02;;;;;;;;;;4984725;28;20014;-76
2022/05/26 01:35:35;;;;;;;21.63;10.80;;;;;;;;;;4911018;28;20151;-76
2022/05/26 01:38:09;;;;;;;21.15;11.93;;;;;;;;;;4999266;28;20109;-76
2022/05/26 01:40:34;;;;;;;;;;;;;;;;;;5009497;28;20121;-75
2022/05/26 01:43:14;;;;;;;18.58;9.95;;;;;;;;;;5004784;28;19917;-79
2022/05/26 01:45:43;;;;;;;20.95;9.35;;;;;;;;;;5006100;28;20061;-77
2022/05/26 01:48:08;;;;;;;17.15;10.25;;;;;;;;;;5005784;28;20030;-77
2022/05/26 01:50:38;;;;;;;18.60;9.77;;;;;;;;;;5006822;28;20052;-76
2022/05/26 01:53:26;;;;;;;23.88;10.85;;;;;;;;;;5011590;28;20476;-75
2022/05/26 01:55:55;;;;;;;18.90;9.35;;;;;;;;;;4995508;28;20041;-76
2022/05/26 01:58:26;;;;;;;16.08;9.82;;;;;;;;;;5007020;28;20065;-75
2022/05/26 02:00:52;;;;;;;18.02;9.73;;;;;;;;;;5012521;28;20062;-75
2022/05/26 02:03:20;;;;;;;21.27;9.15;;;;;;;;;;5008751;28;20056;-76
2022/05/26 02:05:48;;;;;;;14.05;9.57;;;;;;;;;;5002164;28;20018;-76
2022/05/26 02:08:19;;;;;;;19.95;9.70;;;;;;;;;;5005143;28;20040;-75
2022/05/26 02:10:47;;;;;;;18.50;9.10;;;;;;;;;;5017761;28;20021;-75
2022/05/26 02:13:16;;;;;;;19.77;9.65;;;;;;;;;;4990837;28;20030;-75
2022/05/26 02:15:43;;;;;;;26.08;10.98;;;;;;;;;;5003514;28;20087;-76
2022/05/26 02:18:12;;;;;;;20.20;9.20;;;;;;;;;;5003918;28;20309;-76
2022/05/26 02:20:56;;;;;;;21.42;10.60;;;;;;;;;;5005119;28;20026;-75
2022/05/26 02:23:44;;;;;;;22.67;9.90;;;;;;;;;;5005573;28;20037;-75
2022/05/26 02:26:10;;;;;;;26.30;10.15;;;;;;;;;;4973585;28;20128;-76
2022/05/26 02:31:33;;;;;;;18.58;10.15;;;;;;;;;;4979461;28;20052;-76
2022/05/26 02:34:00;;;;;;;20.60;10.43;;;;;;;;;;5003796;28;20030;-76
2022/05/26 02:36:27;;;;;;;20.95;10.82;;;;;;;;;;5010321;28;20561;-76
2022/05/26 02:38:52;;;;;;;30.73;11.27;;;;;;;;;;5005332;28;20029;-75
2022/05/26 02:41:18;;;;;;;18.70;9.73;;;;;;;;;;4979733;28;20025;-74
2022/05/26 02:43:43;;;;;;;23.33;10.23;;;;;;;;;;5002480;28;20452;-75
2022/05/26 02:46:26;;;;;;;20.77;9.87;;;;;;;;;;5022205;28;20026;-74
2022/05/26 02:49:06;;;;;;;20.50;9.93;;;;;;;;;;5014010;28;20321;-75
2022/05/26 02:51:57;;;;;;;22.83;9.73;;;;;;;;;;5001175;28;20490;-73
2022/05/26 02:54:22;;;;;;;27.63;10.20;;;;;;;;;;5004451;28;20033;-80
2022/05/26 02:56:51;;;;;;;21.77;9.93;;;;;;;;;;4999759;28;20022;-75
2022/05/26 02:59:22;;;;;;;26.60;11.63;;;;;;;;;;4999306;28;20021;-76
2022/05/26 03:01:53;;;;;;;31.35;11.18;;;;;;;;;;5005800;28;20499;-75
2022/05/26 03:04:39;;;;;;;21.52;10.93;;;;;;;;;;5000874;28;20040;-76
2022/05/26 03:07:09;;;;;;;23.75;10.77;;;;;;;;;;5001667;28;20026;-77
2022/05/26 03:09:35;;;;;;;27.70;11.82;;;;;;;;;;5010677;28;20468;-75
2022/05/26 03:12:00;;;;;;;28.55;11.68;;;;;;;;;;5006371;28;20021;-77
2022/05/26 03:14:26;;;;;;;30.40;11.55;;;;;;;;;;5012085;28;20026;-76
2022/05/26 03:16:51;;;;;;;24.25;9.95;;;;;;;;;;5001730;28;20197;-77
2022/05/26 03:19:16;;;;;;;23.57;10.70;;;;;;;;;;4997413;28;20057;-74
2022/05/26 03:21:42;;;;;;;32.78;11.30;;;;;;;;;;5001727;28;20049;-77
2022/05/26 03:24:08;;;;;;;31.63;11.63;;;;;;;;;;5003074;28;20590;-76
2022/05/26 03:26:33;;;;;;;32.10;10.75;;;;;;;;;;5004327;28;20576;-76
2022/05/26 03:28:58;;;;;;;29.13;10.43;;;;;;;;;;5005474;28;20028;-77
2022/05/26 03:31:24;;;;;;;33.92;12.07;;;;;;;;;;5004319;28;20513;-76
2022/05/26 03:42:02;;;;;;;30.20;10.25;;;;;;;;;;4998967;28;20037;-78
2022/05/26 03:44:30;;;;;;;32.45;11.68;;;;;;;;;;4984439;28;20038;-77
2022/05/26 03:46:55;;;;;;;32.85;11.73;;;;;;;;;;4997993;28;20067;-76
2022/05/26 03:49:20;;;;;;;28.83;10.73;;;;;;;;;;4989720;28;20030;-78
2022/05/26 03:51:45;;;;;;;23.13;10.35;;;;;;;;;;5002332;28;20263;-77
2022/05/26 03:54:10;;;;;;;29.30;10.57;;;;;;;;;;4985921;28;20033;-78
2022/05/26 03:56:36;;;;;;;29.88;9.48;;;;;;;;;;4996291;28;20512;-78
2022/05/26 03:59:01;;;;;;;29.98;9.88;;;;;;;;;;5003103;28;20069;-77
2022/05/26 04:01:27;;;;;;;24.95;10.38;;;;;;;;;;4986156;28;20083;-75
2022/05/26 04:03:52;;;;;;;25.52;10.52;;;;;;;;;;5007054;28;20450;-79
2022/05/26 04:06:17;;;;;;;23.38;8.32;;;;;;;;;;5010429;28;20087;-80
2022/05/26 04:08:43;;;;;;;27.65;10.00;;;;;;;;;;5001421;28;20025;-75
2022/05/26 04:11:08;;;;;;;29.85;9.57;;;;;;;;;;5000362;28;20373;-78
2022/05/26 04:13:33;;;;;;;27.95;8.75;;;;;;;;;;5001221;28;20030;-78
2022/05/26 04:15:59;;;;;;;26.77;9.25;;;;;;;;;;5001970;28;20033;-75
2022/05/26 04:18:24;;;;;;;37.90;8.63;;;;;;;;;;5004586;28;20030;-76
2022/05/26 04:20:49;;;;;;;28.20;9.53;;;;;;;;;;5012622;28;20060;-75
2022/05/26 04:23:14;;;;;;;34.00;9.73;;;;;;;;;;5001227;28;20038;-76
2022/05/26 04:25:39;;;;;;;30.77;10.20;;;;;;;;;;5007981;28;20283;-75
2022/05/26 04:28:04;;;;;;;31.30;8.75;;;;;;;;;;5001818;28;20357;-77
2022/05/26 04:30:30;;;;;;;29.43;9.23;;;;;;;;;;5005023;28;20021;-76
2022/05/26 04:32:56;;;;;;;30.30;8.87;;;;;;;;;;5001942;28;20788;-76
2022/05/26 04:35:21;;;;;;;27.80;8.93;;;;;;;;;;5006233;28;20297;-77
2022/05/26 04:37:46;;;;;;;29.65;9.02;;;;;;;;;;4997727;28;20305;-77
2022/05/26 04:40:12;;;;;;;38.17;9.77;;;;;;;;;;5012480;28;20372;-77
2022/05/26 04:42:37;;;;;;;24.25;7.90;;;;;;;;;;4967613;28;1028332;-77
2022/05/26 04:45:03;;;;;;;33.13;7.88;;;;;;;;;;5003666;28;20490;-77
2022/05/26 04:47:29;;;;;;;27.17;8.35;;;;;;;;;;5006122;28;20029;-75
2022/05/26 04:49:54;;;;;;;23.35;6.72;;;;;;;;;;5004846;28;20029;-75
2022/05/26 04:52:20;;;;;;;27.90;6.97;;;;;;;;;;4987901;28;20032;-76
2022/05/26 04:54:46;;;;;;;22.02;7.65;;;;;;;;;;4983787;28;20701;-74
2022/05/26 04:57:11;;;;;;;29.77;7.95;;;;;;;;;;5001311;28;20021;-75
2022/05/26 04:59:37;;;;;;;24.02;7.40;;;;;;;;;;4985286;28;20026;-77
2022/05/26 05:02:04;;;;;;;24.50;6.95;;;;;;;;;;4985133;28;20389;-78
2022/05/26 05:04:29;;;;;;;25.98;7.43;;;;;;;;;;5009850;28;20026;-76
2022/05/26 05:06:55;;;;;;;26.45;6.72;;;;;;;;;;5013521;28;20026;-76
2022/05/26 05:09:21;;;;;;;26.65;6.80;;;;;;;;;;4987915;28;20068;-78
2022/05/26 05:11:47;;;;;;;27.02;6.72;;;;;;;;;;4986911;28;20042;-79
2022/05/26 05:14:12;;;;;;;29.65;7.47;;;;;;;;;;5010348;28;20495;-75
2022/05/26 05:16:45;;;;;;;28.83;7.27;;;;;;;;;;4991425;28;20026;-76
2022/05/26 05:19:11;;;;;;;25.02;6.93;;;;;;;;;;5018489;28;20271;-75
2022/05/26 05:21:43;;;;;;;28.33;6.97;;;;;;;;;;5009196;28;20092;-75
2022/05/26 05:24:14;;;;;;;23.15;6.38;;;;;;;;;;5004324;28;20018;-76
2022/05/26 05:26:40;;;;;;;31.02;7.07;;;;;;;;;;4991509;28;20034;-74
2022/05/26 05:29:07;;;;;;;20.33;6.10;;;;;;;;;;4993358;28;20783;-75
2022/05/26 05:31:35;;;;;;;21.73;6.95;;;;;;;;;;4988702;28;20109;-76
2022/05/26 05:34:03;;;;;;;20.08;6.13;;;;;;;;;;5004222;28;20404;-80
2022/05/26 05:36:31;;;;;;;29.20;7.55;;;;;;;;;;5006823;28;20100;-75
2022/05/26 05:38:58;;;;;;;37.88;6.50;;;;;;;;;;5008260;28;20025;-76
2022/05/26 05:41:23;;;;;;;25.83;5.80;;;;;;;;;;4987431;28;20026;-77
2022/05/26 05:43:48;;;;;;;21.58;5.43;;;;;;;;;;5009194;28;20030;-76
2022/05/26 05:46:14;;;;;;;26.88;6.43;;;;;;;;;;5015561;28;20025;-76
2022/05/26 05:48:43;;;;;;;21.38;6.50;;;;;;;;;;5004181;28;20021;-79
2022/05/26 05:51:08;;;;;;;27.67;5.60;;;;;;;;;;5007163;28;20423;-76
2022/05/26 05:53:33;;;;;;;19.25;5.97;;;;;;;;;;4984476;28;20046;-75
2022/05/26 05:55:59;;;;;;;17.92;5.22;;;;;;;;;;5001680;28;20034;-77
2022/05/26 05:58:25;;;;;;;26.48;7.10;;;;;;;;;;5002121;28;20044;-75
2022/05/26 06:00:50;;;;;;;25.90;7.63;;;;;;;;;;5002929;28;20609;-76
2022/05/26 06:03:15;;;;;;;18.70;6.60;;;;;;;;;;5004917;28;20029;-80
2022/05/26 06:05:40;;;;;;;25.02;6.43;;;;;;;;;;5004974;28;20290;-78
2022/05/26 06:08:06;;;;;;;23.80;5.97;;;;;;;;;;4993507;28;20030;-78
2022/05/26 06:10:32;;;;;;;24.27;6.65;;;;;;;;;;5011836;28;20017;-76
2022/05/26 06:12:58;;;;;;;23.65;6.90;;;;;;;;;;5009207;28;20022;-76
2022/05/26 06:15:23;;;;;;;26.90;6.72;;;;;;;;;;5009392;28;20033;-78
2022/05/26 06:17:49;;;;;;;33.85;7.60;;;;;;;;;;4998623;28;20168;-79
2022/05/26 06:20:14;;;;;;;24.88;6.80;;;;;;;;;;5006866;28;20030;-78
2022/05/26 06:22:41;;;;;;;22.77;6.25;;;;;;;;;;5015552;28;20037;-76
2022/05/26 06:25:06;;;;;;;37.95;7.05;;;;;;;;;;5007393;28;20465;-76
2022/05/26 06:30:17;;;;;;;26.02;6.72;;;;;;;;;;5007647;28;20087;-76
2022/05/26 06:38:15;;;;;;;15.57;5.88;;;;;;;;;;5010524;28;20068;-78
2022/05/26 06:40:40;;;;;;;24.35;6.82;;;;;;;;;;5004161;28;20030;-74
2022/05/26 06:43:05;;;;;;;17.80;6.15;;;;;;;;;;5007976;28;20092;-78
2022/05/26 06:45:31;;;;;;;24.75;6.13;;;;;;;;;;4993907;28;20041;-79
2022/05/26 06:47:56;;;;;;;27.42;7.13;;;;;;;;;;5014790;28;20213;-78
2022/05/26 06:50:21;;;;;;;23.73;6.60;;;;;;;;;;4995025;28;20021;-76
2022/05/26 06:52:46;;;;;;;20.90;6.93;;;;;;;;;;5012048;28;20064;-76
2022/05/26 06:55:12;;;;;;;21.00;6.05;;;;;;;;;;5002473;28;20325;-79
2022/05/26 06:57:37;;;;;;;19.33;6.78;;;;;;;;;;4999325;28;20044;-75
2022/05/26 07:00:06;;;;;;;23.47;7.17;;;;;;;;;;5014311;28;20057;-81
2022/05/26 07:02:31;;;;;;;27.15;7.88;;;;;;;;;;5000858;28;20279;-75
2022/05/26 07:04:56;;;;;;;17.15;6.35;;;;;;;;;;4986907;28;20018;-78
2022/05/26 07:07:22;;;;;;;21.48;7.22;;;;;;;;;;4987748;28;20127;-79
2022/05/26 07:09:47;;;;;;;15.77;6.53;;;;;;;;;;5004549;28;20121;-77
2022/05/26 07:12:12;;;;;;;18.53;6.33;;;;;;;;;;4989582;28;20350;-79
2022/05/26 07:14:38;;;;;;;17.63;6.40;;;;;;;;;;5003411;28;20033;-77
2022/05/26 07:17:03;;;;;;;22.58;7.10;;;;;;;;;;5002116;28;20065;-77
2022/05/26 07:19:31;;;;;;;21.88;7.40;;;;;;;;;;5006138;28;20459;-77
2022/05/26 07:21:57;;;;;;;20.00;7.05;;;;;;;;;;5007832;28;20037;-79
2022/05/26 07:24:24;;;;;;;19.35;6.95;;;;;;;;;;4995626;28;20026;-79
2022/05/26 07:26:49;;;;;;;21.23;6.07;;;;;;;;;;4994692;28;20061;-78
2022/05/26 07:29:15;;;;;;;16.52;6.38;;;;;;;;;;5006035;28;20225;-77
2022/05/26 07:31:40;;;;;;;21.40;7.97;;;;;;;;;;5004047;28;20022;-79
2022/05/26 07:34:05;;;;;;;18.48;6.55;;;;;;;;;;5002801;28;20021;-74
2022/05/26 07:42:02;;;;;;;13.32;6.55;;;;;;;;;;5001754;28;20037;-79
2022/05/26 07:44:28;;;;;;;19.50;6.85;;;;;;;;;;5000993;28;20040;-80
2022/05/26 07:46:53;;;;;;;12.57;6.22;;;;;;;;;;4987518;28;20029;-77
2022/05/26 07:49:18;;;;;;;17.42;6.00;;;;;;;;;;5003065;28;20026;-78
2022/05/26 07:51:43;;;;;;;12.67;6.27;;;;;;;;;;4988573;28;20105;-77
2022/05/26 07:54:09;;;;;;;15.02;6.60;;;;;;;;;;4987685;28;20812;-73
2022/05/26 07:56:36;;;;;;;19.38;7.30;;;;;;;;;;5004782;28;20116;-77
2022/05/26 07:59:02;;;;;;;14.35;6.03;;;;;;;;;;5008543;28;20018;-78
2022/05/26 08:01:27;;;;;;;17.33;7.28;;;;;;;;;;5002584;28;20448;-75
2022/05/26 08:03:53;;;;;;;16.98;6.45;;;;;;;;;;5004437;28;20018;-78
2022/05/26 08:06:18;;;;;;;14.55;6.47;;;;;;;;;;5002076;28;20464;-74
2022/05/26 08:08:43;;;;;;;10.65;6.25;;;;;;;;;;5007432;28;20467;-80
2022/05/26 08:11:08;;;;;;;15.18;6.50;;;;;;;;;;5003104;28;20022;-77
2022/05/26 08:13:34;;;;;;;10.50;4.57;;;;;;;;;;4991239;28;20013;-77
2022/05/26 08:15:59;;;;;;;18.70;5.97;;;;;;;;;;4989515;28;20458;-77
2022/05/26 08:18:25;;;;;;;12.18;4.93;;;;;;;;;;5006016;28;20036;-77
2022/05/26 08:20:50;;;;;;;12.40;5.32;;;;;;;;;;4985350;28;20390;-76
2022/05/26 08:23:15;;;;;;;10.10;4.60;;;;;;;;;;5001864;28;20037;-72
2022/05/26 08:25:41;;;;;;;9.73;5.10;;;;;;;;;;4999006;28;20073;-75
2022/05/26 08:28:06;;;;;;;13.03;5.57;;;;;;;;;;5007478;28;20018;-81
2022/05/26 08:30:31;;;;;;;11.05;5.38;;;;;;;;;;4979689;28;20314;-76
2022/05/26 08:32:57;;;;;;;10.50;5.30;;;;;;;;;;5003124;28;20022;-77
2022/05/26 08:35:23;;;;;;;11.10;5.30;;;;;;;;;;5002094;28;20030;-75
2022/05/26 08:37:48;;;;;;;10.07;4.30;;;;;;;;;;5002397;28;20123;-78
2022/05/26 08:40:23;;;;;;;12.60;4.50;;;;;;;;;;4987476;28;20410;-75
2022/05/26 08:42:49;;;;;;;12.23;4.85;;;;;;;;;;4980399;28;20029;-78
2022/05/26 08:45:14;;;;;;;10.10;4.00;;;;;;;;;;4986738;28;20033;-78
2022/05/26 08:47:41;;;;;;;8.98;4.43;;;;;;;;;;5001441;28;20026;-77
2022/05/26 08:50:08;;;;;;;14.70;4.53;;;;;;;;;;5002089;28;20109;-79
2022/05/26 08:52:36;;;;;;;11.70;5.97;;;;;;;;;;4984628;28;20030;-76
2022/05/26 08:55:11;;;;;;;15.40;5.72;;;;;;;;;;5001815;28;20018;-75
2022/05/26 08:57:39;;;;;;;11.18;4.97;;;;;;;;;;5002261;28;20104;-75
2022/05/26 09:00:06;;;;;;;12.55;5.45;;;;;;;;;;4996371;28;20379;-78
2022/05/26 09:02:33;;;;;;;9.20;4.82;;;;;;;;;;4998709;28;21867;-74
2022/05/26 09:05:00;;;;;;;8.57;4.18;;;;;;;;;;4998290;28;20022;-75
2022/05/26 09:13:02;;;;;;;10.95;3.47;;;;;;;;;;5002213;28;20109;-76
2022/05/26 09:15:28;;;;;;;9.40;4.05;;;;;;;;;;5002335;28;20027;-78
2022/05/26 09:17:53;;;;;;;5.75;3.13;;;;;;;;;;4999014;28;20456;-78
2022/05/26 09:20:27;;;;;;;9.88;3.85;;;;;;;;;;4988347;28;20056;-79
2022/05/26 09:22:53;;;;;;;6.85;3.70;;;;;;;;;;5001831;28;20041;-75
2022/05/26 09:25:37;;;;;;;12.83;3.73;;;;;;;;;;5000649;28;20037;-78
2022/05/26 09:28:02;;;;;;;7.10;3.95;;;;;;;;;;5002394;28;20057;-75
2022/05/26 09:30:29;;;;;;;13.00;4.93;;;;;;;;;;5000769;28;20168;-76
2022/05/26 09:32:55;;;;;;;9.80;3.33;;;;;;;;;;5002158;28;20041;-73
2022/05/26 09:35:20;;;;;;;6.97;3.13;;;;;;;;;;4995368;28;20022;-79
2022/05/26 09:37:48;;;;;;;14.90;3.20;;;;;;;;;;4997117;28;20033;-77
2022/05/26 09:40:16;;;;;;;7.63;3.58;;;;;;;;;;5003334;28;20058;-76
2022/05/26 09:42:41;;;;;;;8.32;3.20;;;;;;;;;;4998887;28;20041;-80
2022/05/26 09:45:10;;;;;;;6.25;2.90;;;;;;;;;;4997899;28;20335;-77
2022/05/26 09:47:39;;;;;;;8.55;2.67;;;;;;;;;;5000495;28;20018;-78
2022/05/26 09:50:09;;;;;;;3.95;2.97;;;;;;;;;;5002936;28;20022;-79
2022/05/26 09:52:45;;;;;;;4.70;2.53;;;;;;;;;;5001012;28;20045;-72
2022/05/26 09:55:21;;;;;;;7.22;2.42;;;;;;;;;;4999201;28;20731;-76
2022/05/26 09:57:46;;;;;;;5.03;2.20;;;;;;;;;;4999867;28;20033;-78
2022/05/26 10:00:33;;;;;;;11.23;3.90;;;;;;;;;;5000969;28;20029;-73
2022/05/26 10:02:59;;;;;;;5.00;2.90;;;;;;;;;;4984969;28;20718;-74
2022/05/26 10:05:45;;;;;;;10.18;3.78;;;;;;;;;;5002575;28;20464;-77
2022/05/26 10:08:15;;;;;;;10.55;3.45;;;;;;;;;;5002605;28;20018;-72
2022/05/26 10:10:46;;;;;;;4.15;2.60;;;;;;;;;;4998176;28;20025;-81
2022/05/26 10:13:28;;;;;;;6.53;2.22;;;;;;;;;;4985944;28;20028;-74
2022/05/26 10:16:15;;;;;;;6.93;3.20;;;;;;;;;;5001119;28;20034;-75
2022/05/26 10:18:54;;;;;;;4.13;2.80;;;;;;;;;;5002162;28;20113;-76
2022/05/26 10:21:28;;;;;;;9.32;3.10;;;;;;;;;;5003728;28;20135;-76
2022/05/26 10:24:12;;;;;;;7.07;2.75;;;;;;;;;;4985175;28;20028;-76
2022/05/26 10:26:37;;;;;;;;;;;;;;;;;;5004878;28;20026;-76
2022/05/26 10:29:14;;;;;;;8.20;2.67;;;;;;;;;;4986379;28;19967;-77
2022/05/26 10:31:53;;;;;;;7.93;3.10;;;;;;;;;;5003275;28;20030;-77
2022/05/26 10:34:35;;;;;;;7.75;2.50;;;;;;;;;;5000954;28;20551;-78
2022/05/26 10:37:00;;;;;;;6.88;2.97;;;;;;;;;;5001973;28;20026;-79
2022/05/26 10:39:25;;;;;;;7.47;3.13;;;;;;;;;;5002856;28;20028;-76
2022/05/26 10:41:52;;;;;;;5.68;2.70;;;;;;;;;;5002751;28;20054;-76
2022/05/26 10:44:36;;;;;;;9.52;2.58;;;;;;;;;;5003480;28;20038;-73
2022/05/26 10:47:11;;;;;;;5.15;2.75;;;;;;;;;;5002829;28;20049;-75
2022/05/26 10:50:00;;;;;;;8.15;2.53;;;;;;;;;;5002482;28;20029;-77
2022/05/26 10:52:32;;;;;;;6.75;2.50;;;;;;;;;;5000817;28;20358;-75
2022/05/26 10:55:10;;;;;;;6.43;2.40;;;;;;;;;;5002641;28;20030;-71
2022/05/26 10:57:43;;;;;;;5.35;1.75;;;;;;;;;;5003277;28;20053;-81
2022/05/26 11:00:10;;;;;;;9.73;2.10;;;;;;;;;;4999669;28;20457;-73
2022/05/26 11:02:39;;;;;;;6.85;2.08;;;;;;;;;;4999160;28;20048;-73
2022/05/26 11:05:12;;;;;;;9.75;2.65;;;;;;;;;;4999016;28;20413;-76
2022/05/26 11:07:43;;;;;;;5.18;1.80;;;;;;;;;;5004468;28;20018;-75
2022/05/26 11:10:16;;;;;;;6.88;2.30;;;;;;;;;;5003493;28;20026;-76
2022/05/26 11:12:51;;;;;;;6.07;1.90;;;;;;;;;;5003212;28;20025;-71
2022/05/26 11:18:41;;;;;;;6.53;1.70;;;;;;;;;;4941375;28;20496;-79
2022/05/26 11:21:06;;;;;;;4.63;2.20;;;;;;;;;;4989721;28;20033;-75
2022/05/26 11:23:35;;;;;;;6.22;1.92;;;;;;;;;;4999594;28;20022;-79
2022/05/26 11:26:03;;;;;;;4.78;1.92;;;;;;;;;;5001550;28;20040;-77
2022/05/26 11:28:40;;;;;;;6.10;2.10;;;;;;;;;;5004539;28;20030;-73
2022/05/26 11:36:56;;;;;;;7.53;2.13;;;;;;;;;;5005660;28;20052;-75
2022/05/26 11:39:23;;;;;;;4.50;1.52;;;;;;;;;;4997107;28;20029;-77
2022/05/26 11:41:53;;;;;;;5.13;1.42;;;;;;;;;;5001735;28;20160;-75
2022/05/26 11:44:37;;;;;;;7.45;1.35;;;;;;;;;;5005087;28;20028;-75
2022/05/26 11:47:11;;;;;;;6.32;1.73;;;;;;;;;;5003035;28;20037;-76
2022/05/26 11:49:42;;;;;;;3.15;1.50;;;;;;;;;;4999797;28;20061;-75
2022/05/26 11:52:10;;;;;;;6.10;2.08;;;;;;;;;;5001324;28;20021;-77
2022/05/26 11:54:53;;;;;;;5.18;1.85;;;;;;;;;;5000500;28;20022;-76
2022/05/26 11:57:37;;;;;;;4.40;1.83;;;;;;;;;;5002125;28;20108;-74
2022/05/26 12:00:02;;;;;;;;;;;;;;;;;;4998786;28;20041;-75
2022/05/26 12:02:28;;;;;;;4.05;1.83;;;;;;;;;;4999603;28;19920;-75
2022/05/26 12:04:53;;;;;;;4.88;1.77;;;;;;;;;;5000609;28;20024;-73
2022/05/26 12:07:18;;;;;;;3.70;1.98;;;;;;;;;;4984934;28;20027;-73
2022/05/26 12:09:44;;;;;;;4.03;1.92;;;;;;;;;;4982736;28;20633;-79
2022/05/26 12:12:12;;;;;;;5.30;2.27;;;;;;;;;;4981264;28;20456;-79
2022/05/26 12:14:46;;;;;;;4.55;2.10;;;;;;;;;;5004074;28;20053;-76
2022/05/26 12:17:29;;;;;;;13.35;2.50;;;;;;;;;;4985202;28;20384;-75
2022/05/26 12:19:55;;;;;;;5.20;2.38;;;;;;;;;;5001329;28;20026;-75
2022/05/26 12:22:32;;;;;;;4.70;2.50;;;;;;;;;;5003414;28;20117;-72
2022/05/26 12:25:08;;;;;;;5.55;2.55;;;;;;;;;;4982877;28;20041;-76
2022/05/26 12:27:48;;;;;;;5.28;3.35;;;;;;;;;;5002674;28;20370;-75
2022/05/26 12:30:28;;;;;;;6.68;3.13;;;;;;;;;;4993190;28;20026;-78
2022/05/26 12:32:53;;;;;;;10.90;3.55;;;;;;;;;;5001326;28;20014;-80
2022/05/26 12:35:44;;;;;;;6.93;3.90;;;;;;;;;;5000106;28;20032;-76
2022/05/26 12:38:18;;;;;;;7.53;4.90;;;;;;;;;;4995988;28;20029;-77
2022/05/26 12:41:22;;;;;;;8.18;4.03;;;;;;;;;;4998428;28;20018;-78
2022/05/26 12:44:07;;;;;;;6.60;3.73;;;;;;;;;;4935033;29;20114;-76
2022/05/26 12:46:43;;;;;;;7.38;4.72;;;;;;;;;;4932297;28;20050;-75
2022/05/26 12:49:16;;;;;;;7.43;5.28;;;;;;;;;;4979967;28;20042;-76
2022/05/26 12:51:42;;;;;;;10.27;6.13;;;;;;;;;;4998795;28;20022;-74
2022/05/26 12:54:16;;;;;;;10.00;6.63;;;;;;;;;;5000619;28;20034;-73
2022/05/26 12:56:51;;;;;;;11.25;8.07;;;;;;;;;;5015936;28;20038;-72
2022/05/26 12:59:21;;;;;;;9.10;7.35;;;;;;;;;;5002171;28;20037;-73
2022/05/26 13:01:48;;;;;;;11.35;7.53;;;;;;;;;;4997969;28;20428;-75
2022/05/26 13:04:17;;;;;;;14.70;9.18;;;;;;;;;;4998266;28;20112;-78
2022/05/26 13:06:44;;;;;;;8.73;7.90;;;;;;;;;;4998458;28;20018;-76
2022/05/26 13:09:14;;;;;;;10.65;8.73;;;;;;;;;;5001320;28;20022;-73
2022/05/26 13:11:44;;;;;;;15.32;10.48;;;;;;;;;;4984200;28;20030;-73
2022/05/26 13:14:17;;;;;;;14.10;8.68;;;;;;;;;;4985349;28;20021;-76
2022/05/26 13:16:42;;;;;;;14.37;8.93;;;;;;;;;;5000182;28;20058;-75
2022/05/26 13:19:17;;;;;;;11.60;7.80;;;;;;;;;;5000836;28;20123;-75
2022/05/26 13:21:43;;;;;;;10.48;8.05;;;;;;;;;;5000762;28;20033;-74
2022/05/26 13:24:16;;;;;;;10.02;7.97;;;;;;;;;;4997215;28;20477;-79
2022/05/26 13:26:42;;;;;;;9.40;6.68;;;;;;;;;;4996132;28;20037;-75
2022/05/26 13:29:08;;;;;;;14.35;7.22;;;;;;;;;;4997545;28;20064;-78
2022/05/26 13:34:17;;;;;;;9.63;5.95;;;;;;;;;;4998430;28;20033;-75
2022/05/26 13:36:47;;;;;;;8.52;6.22;;;;;;;;;;4987952;28;20672;-74
2022/05/26 13:39:14;;;;;;;9.93;6.60;;;;;;;;;;5005279;28;20030;-75
2022/05/26 13:41:41;;;;;;;10.73;7.10;;;;;;;;;;5003023;28;20055;-75
2022/05/26 13:44:07;;;;;;;9.77;7.00;;;;;;;;;;5003688;28;20033;-78
2022/05/26 13:46:38;;;;;;;10.75;7.20;;;;;;;;;;5001090;28;20053;-75
2022/05/26 13:49:22;;;;;;;10.10;6.45;;;;;;;;;;5006059;28;20010;-74
2022/05/26 13:51:48;;;;;;;8.25;6.47;;;;;;;;;;5001446;28;20022;-74
2022/05/26 13:54:23;;;;;;;11.10;7.00;;;;;;;;;;5000739;28;20430;-76
2022/05/26 13:56:48;;;;;;;9.43;6.18;;;;;;;;;;5003420;28;20028;-75
2022/05/26 13:59:14;;;;;;;9.88;6.18;;;;;;;;;;5003434;28;20033;-75
2022/05/26 14:02:06;;;;;;;9.13;6.32;;;;;;;;;;5001316;28;20030;-75
2022/05/26 14:04:37;;;;;;;12.57;6.30;;;;;;;;;;4968485;28;20050;-72
2022/05/26 14:07:22;;;;;;;9.60;6.63;;;;;;;;;;4999549;28;20034;-74
2022/05/26 14:09:58;;;;;;;13.15;6.65;;;;;;;;;;4998344;28;20449;-73
2022/05/26 14:12:24;;;;;;;8.00;5.55;;;;;;;;;;4996615;28;20036;-77
2022/05/26 14:14:49;;;;;;;15.25;6.75;;;;;;;;;;4980536;28;20025;-74
2022/05/26 14:17:26;;;;;;;10.40;6.53;;;;;;;;;;4992710;28;20046;-72
2022/05/26 14:19:54;;;;;;;10.52;7.03;;;;;;;;;;4997740;28;20153;-75
2022/05/26 14:22:21;;;;;;;10.27;6.18;;;;;;;;;;5002934;28;20456;-82
2022/05/26 14:24:49;;;;;;;12.02;6.97;;;;;;;;;;5006952;28;20033;-78
2022/05/26 14:27:17;;;;;;;12.15;6.50;;;;;;;;;;5002179;28;20470;-74
2022/05/26 14:29:43;;;;;;;8.77;6.05;;;;;;;;;;4999536;28;20014;-75
2022/05/26 14:32:13;;;;;;;15.20;7.18;;;;;;;;;;4997397;28;20044;-77
2022/05/26 14:34:44;;;;;;;7.13;5.93;;;;;;;;;;5001674;28;20068;-72
2022/05/26 14:37:10;;;;;;;7.38;6.03;;;;;;;;;;5003953;28;20120;-76
2022/05/26 14:39:36;;;;;;;8.82;5.57;;;;;;;;;;5000108;28;20104;-75
2022/05/26 14:42:02;;;;;;;8.05;5.22;;;;;;;;;;4999801;28;20056;-76
2022/05/26 14:44:28;;;;;;;6.88;5.45;;;;;;;;;;4985301;28;20129;-71
2022/05/26 14:46:53;;;;;;;8.98;5.68;;;;;;;;;;4995231;28;20698;-80
2022/05/26 14:49:18;;;;;;;11.33;5.07;;;;;;;;;;4999531;28;20060;-75
2022/05/26 14:51:44;;;;;;;5.85;4.90;;;;;;;;;;4997942;28;20187;-77
2022/05/26 14:56:54;;;;;;;6.30;4.80;;;;;;;;;;4999495;28;20037;-73
2022/05/26 14:59:19;;;;;;;12.32;4.57;;;;;;;;;;5004367;28;20270;-74
2022/05/26 15:01:44;;;;;;;7.83;4.20;;;;;;;;;;5005798;28;20358;-74
2022/05/26 15:04:09;;;;;;;8.27;4.57;;;;;;;;;;4990079;28;20104;-76
2022/05/26 15:06:41;;;;;;;8.70;4.30;;;;;;;;;;5004657;28;20290;-73
2022/05/26 15:09:08;;;;;;;9.75;3.90;;;;;;;;;;5004110;28;20144;-74
2022/05/26 15:11:34;;;;;;;8.13;4.05;;;;;;;;;;5004101;28;20030;-76
2022/05/26 15:13:59;;;;;;;5.53;3.83;;;;;;;;;;5003828;28;20033;-72
2022/05/26 15:16:24;;;;;;;8.73;4.17;;;;;;;;;;4992992;28;20045;-77
2022/05/26 15:18:50;;;;;;;9.60;4.43;;;;;;;;;;4985424;28;20455;-77
2022/05/26 15:21:15;;;;;;;6.95;3.95;;;;;;;;;;4998467;28;20057;-74
2022/05/26 15:23:40;;;;;;;9.88;4.40;;;;;;;;;;4985906;28;20084;-74
2022/05/26 15:26:08;;;;;;;8.60;3.73;;;;;;;;;;5004286;28;20084;-75
2022/05/26 15:28:34;;;;;;;6.60;3.65;;;;;;;;;;5003539;28;20728;-74